sensor_id;sensor_type;location;lat;lon;timestamp;temperature;humidity
66576;SHT31;53428;47.686;16.584;2023-03-23T00:04:25;12.71;67.62
66576;SHT31;53428;47.686;16.584;2023-03-23T00:09:26;13.26;66.54
66576;SHT31;53428;47.686;16.584;2023-03-23T00:14:26;13.21;66.14
66576;SHT31;53428;47.686;16.584;2023-03-23T00:19:25;13.66;65.14
66576;SHT31;53428;47.686;16.584;2023-03-23T00:24:24;13.18;66.23
66576;SHT31;53428;47.686;16.584;2023-03-23T00:29:24;12.68;68.10
66576;SHT31;53428;47.686;16.584;2023-03-23T00:34:25;12.26;69.64
66576;SHT31;53428;47.686;16.584;2023-03-23T00:39:26;12.06;70.03
66576;SHT31;53428;47.686;16.584;2023-03-23T00:44:28;11.91;70.71
66576;SHT31;53428;47.686;16.584;2023-03-23T00:49:27;11.51;71.76
66576;SHT31;53428;47.686;16.584;2023-03-23T00:54:27;11.36;72.60
66576;SHT31;53428;47.686;16.584;2023-03-23T00:59:27;11.08;73.23
66576;SHT31;53428;47.686;16.584;2023-03-23T01:04:26;11.05;73.64
66576;SHT31;53428;47.686;16.584;2023-03-23T01:09:27;10.78;74.27
66576;SHT31;53428;47.686;16.584;2023-03-23T01:14:26;10.51;75.09
66576;SHT31;53428;47.686;16.584;2023-03-23T01:19:26;10.51;75.56
66576;SHT31;53428;47.686;16.584;2023-03-23T01:24:26;10.36;75.94
66576;SHT31;53428;47.686;16.584;2023-03-23T01:29:25;10.23;76.20
66576;SHT31;53428;47.686;16.584;2023-03-23T01:34:24;10.13;76.30
66576;SHT31;53428;47.686;16.584;2023-03-23T01:39:24;10.10;76.19
66576;SHT31;53428;47.686;16.584;2023-03-23T01:49:43;9.26;78.17
66576;SHT31;53428;47.686;16.584;2023-03-23T01:54:46;8.99;79.03
66576;SHT31;53428;47.686;16.584;2023-03-23T01:59:49;8.84;79.96
66576;SHT31;53428;47.686;16.584;2023-03-23T02:04:51;8.80;79.76
66576;SHT31;53428;47.686;16.584;2023-03-23T02:09:54;8.69;80.24
66576;SHT31;53428;47.686;16.584;2023-03-23T02:14:53;8.72;80.06
66576;SHT31;53428;47.686;16.584;2023-03-23T02:20:15;8.52;80.83
66576;SHT31;53428;47.686;16.584;2023-03-23T02:25:26;8.41;81.00
66576;SHT31;53428;47.686;16.584;2023-03-23T02:30:47;8.12;81.77
66576;SHT31;53428;47.686;16.584;2023-03-23T02:40:49;7.70;83.42
66576;SHT31;53428;47.686;16.584;2023-03-23T02:45:50;7.63;83.80
66576;SHT31;53428;47.686;16.584;2023-03-23T02:50:52;7.52;84.40
66576;SHT31;53428;47.686;16.584;2023-03-23T02:55:53;7.46;84.62
66576;SHT31;53428;47.686;16.584;2023-03-23T03:00:54;7.51;84.47
66576;SHT31;53428;47.686;16.584;2023-03-23T03:06:31;7.53;84.58
66576;SHT31;53428;47.686;16.584;2023-03-23T03:11:33;7.48;84.96
66576;SHT31;53428;47.686;16.584;2023-03-23T03:16:45;7.45;85.24
66576;SHT31;53428;47.686;16.584;2023-03-23T03:21:47;7.58;85.01
66576;SHT31;53428;47.686;16.584;2023-03-23T03:26:50;7.67;84.67
66576;SHT31;53428;47.686;16.584;2023-03-23T03:31:52;7.66;84.61
66576;SHT31;53428;47.686;16.584;2023-03-23T03:36:56;7.65;84.64
66576;SHT31;53428;47.686;16.584;2023-03-23T03:41:58;7.69;84.56
66576;SHT31;53428;47.686;16.584;2023-03-23T03:46:57;7.70;84.60
66576;SHT31;53428;47.686;16.584;2023-03-23T03:51:57;7.80;84.24
66576;SHT31;53428;47.686;16.584;2023-03-23T03:56:56;7.65;84.73
66576;SHT31;53428;47.686;16.584;2023-03-23T04:01:57;7.51;84.88
66576;SHT31;53428;47.686;16.584;2023-03-23T04:06:57;7.35;85.27
66576;SHT31;53428;47.686;16.584;2023-03-23T04:11:56;7.35;84.81
66576;SHT31;53428;47.686;16.584;2023-03-23T04:16:56;7.05;85.37
66576;SHT31;53428;47.686;16.584;2023-03-23T04:21:55;6.95;85.47
66576;SHT31;53428;47.686;16.584;2023-03-23T04:26:57;6.87;86.00
66576;SHT31;53428;47.686;16.584;2023-03-23T04:31:57;7.03;85.59
66576;SHT31;53428;47.686;16.584;2023-03-23T04:36:56;6.97;85.68
66576;SHT31;53428;47.686;16.584;2023-03-23T04:41:55;6.81;85.58
66576;SHT31;53428;47.686;16.584;2023-03-23T04:47:02;6.73;85.91
66576;SHT31;53428;47.686;16.584;2023-03-23T04:52:02;6.73;85.99
66576;SHT31;53428;47.686;16.584;2023-03-23T04:57:01;6.75;85.83
66576;SHT31;53428;47.686;16.584;2023-03-23T05:02:00;6.75;84.94
66576;SHT31;53428;47.686;16.584;2023-03-23T05:07:00;6.53;85.47
66576;SHT31;53428;47.686;16.584;2023-03-23T05:12:07;6.83;84.69
66576;SHT31;53428;47.686;16.584;2023-03-23T05:17:06;7.04;84.18
66576;SHT31;53428;47.686;16.584;2023-03-23T05:22:06;6.77;85.27
66576;SHT31;53428;47.686;16.584;2023-03-23T05:27:05;6.90;85.10
66576;SHT31;53428;47.686;16.584;2023-03-23T05:32:07;7.00;84.84
66576;SHT31;53428;47.686;16.584;2023-03-23T05:37:07;7.16;84.70
66576;SHT31;53428;47.686;16.584;2023-03-23T05:42:06;7.32;84.56
66576;SHT31;53428;47.686;16.584;2023-03-23T05:47:06;7.70;83.70
66576;SHT31;53428;47.686;16.584;2023-03-23T05:52:07;7.87;83.18
66576;SHT31;53428;47.686;16.584;2023-03-23T05:57:06;8.30;81.72
66576;SHT31;53428;47.686;16.584;2023-03-23T06:02:05;8.53;81.07
66576;SHT31;53428;47.686;16.584;2023-03-23T06:07:04;8.69;80.79
66576;SHT31;53428;47.686;16.584;2023-03-23T06:12:04;8.72;81.04
66576;SHT31;53428;47.686;16.584;2023-03-23T06:17:04;9.11;79.75
66576;SHT31;53428;47.686;16.584;2023-03-23T06:22:03;9.38;78.87
66576;SHT31;53428;47.686;16.584;2023-03-23T06:27:04;9.89;78.06
66576;SHT31;53428;47.686;16.584;2023-03-23T06:32:04;10.29;76.88
66576;SHT31;53428;47.686;16.584;2023-03-23T06:37:03;10.40;76.92
66576;SHT31;53428;47.686;16.584;2023-03-23T06:42:04;10.51;76.59
66576;SHT31;53428;47.686;16.584;2023-03-23T06:47:04;10.95;75.64
66576;SHT31;53428;47.686;16.584;2023-03-23T06:52:04;11.03;75.31
66576;SHT31;53428;47.686;16.584;2023-03-23T06:57:05;11.48;73.91
66576;SHT31;53428;47.686;16.584;2023-03-23T07:02:05;11.78;73.92
66576;SHT31;53428;47.686;16.584;2023-03-23T07:07:07;11.47;74.74
66576;SHT31;53428;47.686;16.584;2023-03-23T07:12:07;11.77;74.66
66576;SHT31;53428;47.686;16.584;2023-03-23T07:17:07;12.02;75.46
66576;SHT31;53428;47.686;16.584;2023-03-23T07:22:07;12.16;74.63
66576;SHT31;53428;47.686;16.584;2023-03-23T07:27:07;12.26;73.88
66576;SHT31;53428;47.686;16.584;2023-03-23T07:32:11;12.64;72.92
66576;SHT31;53428;47.686;16.584;2023-03-23T07:37:11;12.91;71.76
66576;SHT31;53428;47.686;16.584;2023-03-23T07:42:10;12.95;70.96
66576;SHT31;53428;47.686;16.584;2023-03-23T07:47:10;13.26;69.92
66576;SHT31;53428;47.686;16.584;2023-03-23T07:52:09;13.29;70.47
66576;SHT31;53428;47.686;16.584;2023-03-23T07:57:10;13.25;70.78
66576;SHT31;53428;47.686;16.584;2023-03-23T08:02:09;14.04;68.17
66576;SHT31;53428;47.686;16.584;2023-03-23T08:07:09;13.94;68.09
66576;SHT31;53428;47.686;16.584;2023-03-23T08:12:11;14.65;66.31
66576;SHT31;53428;47.686;16.584;2023-03-23T08:17:11;13.93;68.64
66576;SHT31;53428;47.686;16.584;2023-03-23T08:22:10;14.61;66.43
66576;SHT31;53428;47.686;16.584;2023-03-23T08:27:09;14.97;66.24
66576;SHT31;53428;47.686;16.584;2023-03-23T08:32:09;14.84;66.87
66576;SHT31;53428;47.686;16.584;2023-03-23T08:37:08;14.73;67.81
66576;SHT31;53428;47.686;16.584;2023-03-23T08:42:08;14.84;68.13
66576;SHT31;53428;47.686;16.584;2023-03-23T08:47:11;15.31;66.33
66576;SHT31;53428;47.686;16.584;2023-03-23T08:52:11;15.50;66.22
66576;SHT31;53428;47.686;16.584;2023-03-23T08:57:11;16.14;63.05
66576;SHT31;53428;47.686;16.584;2023-03-23T09:02:11;16.61;61.95
66576;SHT31;53428;47.686;16.584;2023-03-23T09:07:13;16.89;60.83
66576;SHT31;53428;47.686;16.584;2023-03-23T09:12:13;16.69;59.66
66576;SHT31;53428;47.686;16.584;2023-03-23T09:17:13;16.72;59.83
66576;SHT31;53428;47.686;16.584;2023-03-23T09:22:12;17.33;59.64
66576;SHT31;53428;47.686;16.584;2023-03-23T09:27:12;17.95;58.21
66576;SHT31;53428;47.686;16.584;2023-03-23T09:32:11;17.81;57.68
66576;SHT31;53428;47.686;16.584;2023-03-23T09:37:12;17.85;57.87
66576;SHT31;53428;47.686;16.584;2023-03-23T09:53:24;17.85;57.07
66576;SHT31;53428;47.686;16.584;2023-03-23T09:58:31;17.20;58.70
66576;SHT31;53428;47.686;16.584;2023-03-23T10:03:37;17.15;59.72
66576;SHT31;53428;47.686;16.584;2023-03-23T10:08:48;17.23;59.40
66576;SHT31;53428;47.686;16.584;2023-03-23T10:24:18;18.46;56.49
66576;SHT31;53428;47.686;16.584;2023-03-23T10:29:31;18.25;57.32
66576;SHT31;53428;47.686;16.584;2023-03-23T10:34:59;18.87;54.97
66576;SHT31;53428;47.686;16.584;2023-03-23T10:40:02;19.56;53.90
66576;SHT31;53428;47.686;16.584;2023-03-23T10:45:22;19.84;53.17
66576;SHT31;53428;47.686;16.584;2023-03-23T10:50:30;19.93;52.71
66576;SHT31;53428;47.686;16.584;2023-03-23T10:55:41;20.04;52.12
66576;SHT31;53428;47.686;16.584;2023-03-23T11:00:44;20.58;52.02
66576;SHT31;53428;47.686;16.584;2023-03-23T11:05:50;21.19;51.17
66576;SHT31;53428;47.686;16.584;2023-03-23T11:10:54;21.33;51.89
66576;SHT31;53428;47.686;16.584;2023-03-23T11:15:53;21.78;51.42
66576;SHT31;53428;47.686;16.584;2023-03-23T11:20:58;21.65;50.82
66576;SHT31;53428;47.686;16.584;2023-03-23T11:26:15;22.74;49.48
66576;SHT31;53428;47.686;16.584;2023-03-23T11:31:16;23.90;46.75
66576;SHT31;53428;47.686;16.584;2023-03-23T11:36:16;24.72;46.76
66576;SHT31;53428;47.686;16.584;2023-03-23T11:41:18;25.24;45.21
66576;SHT31;53428;47.686;16.584;2023-03-23T11:46:26;25.72;44.16
66576;SHT31;53428;47.686;16.584;2023-03-23T11:56:43;25.66;44.95
66576;SHT31;53428;47.686;16.584;2023-03-23T12:18:24;26.41;42.22
66576;SHT31;53428;47.686;16.584;2023-03-23T12:28:07;26.43;42.37
66576;SHT31;53428;47.686;16.584;2023-03-23T12:44:08;25.52;41.30
66576;SHT31;53428;47.686;16.584;2023-03-23T12:49:21;26.58;39.90
66576;SHT31;53428;47.686;16.584;2023-03-23T12:54:33;25.63;41.19
66576;SHT31;53428;47.686;16.584;2023-03-23T13:05:28;26.04;40.68
66576;SHT31;53428;47.686;16.584;2023-03-23T13:10:44;26.43;40.44
66576;SHT31;53428;47.686;16.584;2023-03-23T13:15:52;25.39;41.32
66576;SHT31;53428;47.686;16.584;2023-03-23T13:21:14;24.35;43.77
66576;SHT31;53428;47.686;16.584;2023-03-23T13:26:21;24.28;44.28
66576;SHT31;53428;47.686;16.584;2023-03-23T13:31:29;24.14;44.23
66576;SHT31;53428;47.686;16.584;2023-03-23T13:36:41;24.00;44.58
66576;SHT31;53428;47.686;16.584;2023-03-23T13:41:58;26.44;41.29
66576;SHT31;53428;47.686;16.584;2023-03-23T13:47:08;29.42;36.79
66576;SHT31;53428;47.686;16.584;2023-03-23T13:52:18;28.26;38.49
66576;SHT31;53428;47.686;16.584;2023-03-23T14:02:40;25.30;43.67
66576;SHT31;53428;47.686;16.584;2023-03-23T14:12:55;25.08;44.11
66576;SHT31;53428;47.686;16.584;2023-03-23T14:18:01;26.13;41.66
66576;SHT31;53428;47.686;16.584;2023-03-23T14:23:01;27.19;39.84
66576;SHT31;53428;47.686;16.584;2023-03-23T14:28:01;26.55;40.69
66576;SHT31;53428;47.686;16.584;2023-03-23T14:33:05;25.17;43.91
66576;SHT31;53428;47.686;16.584;2023-03-23T14:38:21;27.00;41.07
66576;SHT31;53428;47.686;16.584;2023-03-23T14:43:23;28.15;38.91
66576;SHT31;53428;47.686;16.584;2023-03-23T14:48:23;28.55;37.58
66576;SHT31;53428;47.686;16.584;2023-03-23T14:53:26;28.09;38.71
66576;SHT31;53428;47.686;16.584;2023-03-23T14:58:28;27.29;39.75
66576;SHT31;53428;47.686;16.584;2023-03-23T15:03:33;26.77;40.65
66576;SHT31;53428;47.686;16.584;2023-03-23T15:08:37;25.18;42.74
66576;SHT31;53428;47.686;16.584;2023-03-23T15:13:37;24.88;43.42
66576;SHT31;53428;47.686;16.584;2023-03-23T15:18:49;26.78;40.47
66576;SHT31;53428;47.686;16.584;2023-03-23T15:23:50;26.64;40.59
66576;SHT31;53428;47.686;16.584;2023-03-23T15:28:49;25.75;42.14
66576;SHT31;53428;47.686;16.584;2023-03-23T15:33:56;26.59;40.44
66576;SHT31;53428;47.686;16.584;2023-03-23T15:38:57;24.59;43.67
66576;SHT31;53428;47.686;16.584;2023-03-23T15:43:58;23.38;46.17
66576;SHT31;53428;47.686;16.584;2023-03-23T15:53:57;23.43;46.33
66576;SHT31;53428;47.686;16.584;2023-03-23T15:58:57;23.29;46.91
66576;SHT31;53428;47.686;16.584;2023-03-23T16:04:03;23.64;46.39
66576;SHT31;53428;47.686;16.584;2023-03-23T16:09:04;23.08;47.43
66576;SHT31;53428;47.686;16.584;2023-03-23T16:14:03;22.46;48.28
66576;SHT31;53428;47.686;16.584;2023-03-23T16:19:03;22.88;47.26
66576;SHT31;53428;47.686;16.584;2023-03-23T16:24:04;22.03;49.07
66576;SHT31;53428;47.686;16.584;2023-03-23T16:29:12;20.96;51.56
66576;SHT31;53428;47.686;16.584;2023-03-23T16:34:12;20.22;53.28
66576;SHT31;53428;47.686;16.584;2023-03-23T16:39:11;19.80;54.49
66576;SHT31;53428;47.686;16.584;2023-03-23T16:44:11;19.33;55.84
66576;SHT31;53428;47.686;16.584;2023-03-23T16:49:10;18.93;56.90
66576;SHT31;53428;47.686;16.584;2023-03-23T16:54:10;18.52;58.15
66576;SHT31;53428;47.686;16.584;2023-03-23T16:59:09;18.26;58.88
66576;SHT31;53428;47.686;16.584;2023-03-23T17:04:08;17.85;59.95
66576;SHT31;53428;47.686;16.584;2023-03-23T17:09:08;17.50;60.93
66576;SHT31;53428;47.686;16.584;2023-03-23T17:14:08;17.22;61.89
66576;SHT31;53428;47.686;16.584;2023-03-23T17:19:07;16.89;62.76
66576;SHT31;53428;47.686;16.584;2023-03-23T17:24:07;16.82;63.30
66576;SHT31;53428;47.686;16.584;2023-03-23T17:29:06;16.40;64.32
66576;SHT31;53428;47.686;16.584;2023-03-23T17:34:06;16.31;64.75
66576;SHT31;53428;47.686;16.584;2023-03-23T17:39:05;16.20;65.26
66576;SHT31;53428;47.686;16.584;2023-03-23T17:44:05;15.99;65.69
66576;SHT31;53428;47.686;16.584;2023-03-23T17:49:05;15.78;66.50
66576;SHT31;53428;47.686;16.584;2023-03-23T17:54:06;15.48;67.26
66576;SHT31;53428;47.686;16.584;2023-03-23T17:59:06;15.47;67.19
66576;SHT31;53428;47.686;16.584;2023-03-23T18:04:06;15.38;67.29
66576;SHT31;53428;47.686;16.584;2023-03-23T18:09:06;15.30;67.23
66576;SHT31;53428;47.686;16.584;2023-03-23T18:14:06;15.20;66.90
66576;SHT31;53428;47.686;16.584;2023-03-23T18:19:09;15.35;66.37
66576;SHT31;53428;47.686;16.584;2023-03-23T18:24:09;15.51;65.56
66576;SHT31;53428;47.686;16.584;2023-03-23T18:29:09;15.62;65.13
66576;SHT31;53428;47.686;16.584;2023-03-23T18:34:08;15.50;65.46
66576;SHT31;53428;47.686;16.584;2023-03-23T18:39:08;15.47;65.42
66576;SHT31;53428;47.686;16.584;2023-03-23T18:44:10;15.58;65.39
66576;SHT31;53428;47.686;16.584;2023-03-23T18:49:09;15.07;66.72
66576;SHT31;53428;47.686;16.584;2023-03-23T18:54:09;15.19;66.65
66576;SHT31;53428;47.686;16.584;2023-03-23T18:59:09;15.02;67.37
66576;SHT31;53428;47.686;16.584;2023-03-23T19:04:13;14.86;67.79
66576;SHT31;53428;47.686;16.584;2023-03-23T19:09:13;14.82;67.43
66576;SHT31;53428;47.686;16.584;2023-03-23T19:14:13;14.69;68.20
66576;SHT31;53428;47.686;16.584;2023-03-23T19:19:13;14.45;68.78
66576;SHT31;53428;47.686;16.584;2023-03-23T19:24:14;14.58;68.28
66576;SHT31;53428;47.686;16.584;2023-03-23T19:29:17;14.38;68.62
66576;SHT31;53428;47.686;16.584;2023-03-23T19:34:17;14.10;69.65
66576;SHT31;53428;47.686;16.584;2023-03-23T19:39:17;13.80;70.46
66576;SHT31;53428;47.686;16.584;2023-03-23T19:44:17;13.60;71.22
66576;SHT31;53428;47.686;16.584;2023-03-23T19:49:17;13.63;71.04
66576;SHT31;53428;47.686;16.584;2023-03-23T19:54:21;13.48;71.46
66576;SHT31;53428;47.686;16.584;2023-03-23T19:59:21;13.66;71.00
66576;SHT31;53428;47.686;16.584;2023-03-23T20:04:20;13.60;71.12
66576;SHT31;53428;47.686;16.584;2023-03-23T20:09:22;13.48;71.77
66576;SHT31;53428;47.686;16.584;2023-03-23T20:14:22;13.15;72.78
66576;SHT31;53428;47.686;16.584;2023-03-23T20:19:22;13.01;73.11
66576;SHT31;53428;47.686;16.584;2023-03-23T20:24:24;12.92;73.35
66576;SHT31;53428;47.686;16.584;2023-03-23T20:29:25;12.90;72.94
66576;SHT31;53428;47.686;16.584;2023-03-23T20:34:26;12.74;73.41
66576;SHT31;53428;47.686;16.584;2023-03-23T20:39:31;12.46;73.93
66576;SHT31;53428;47.686;16.584;2023-03-23T20:44:31;12.26;74.36
66576;SHT31;53428;47.686;16.584;2023-03-23T20:49:37;12.15;74.23
66576;SHT31;53428;47.686;16.584;2023-03-23T20:54:38;11.98;74.72
66576;SHT31;53428;47.686;16.584;2023-03-23T20:59:40;12.02;74.97
66576;SHT31;53428;47.686;16.584;2023-03-23T21:04:41;11.98;75.52
66576;SHT31;53428;47.686;16.584;2023-03-23T21:09:43;11.95;75.32
66576;SHT31;53428;47.686;16.584;2023-03-23T21:14:43;11.66;76.95
66576;SHT31;53428;47.686;16.584;2023-03-23T21:19:45;11.66;75.88
66576;SHT31;53428;47.686;16.584;2023-03-23T21:24:46;11.53;76.75
66576;SHT31;53428;47.686;16.584;2023-03-23T21:29:48;11.51;76.74
66576;SHT31;53428;47.686;16.584;2023-03-23T21:34:47;11.47;76.82
66576;SHT31;53428;47.686;16.584;2023-03-23T21:39:47;11.34;77.13
66576;SHT31;53428;47.686;16.584;2023-03-23T21:44:47;11.26;77.53
66576;SHT31;53428;47.686;16.584;2023-03-23T21:49:47;11.31;77.39
66576;SHT31;53428;47.686;16.584;2023-03-23T21:54:47;11.23;77.36
66576;SHT31;53428;47.686;16.584;2023-03-23T21:59:46;11.26;77.39
66576;SHT31;53428;47.686;16.584;2023-03-23T22:04:46;11.23;77.36
66576;SHT31;53428;47.686;16.584;2023-03-23T22:09:45;11.12;77.68
66576;SHT31;53428;47.686;16.584;2023-03-23T22:14:45;10.91;77.82
66576;SHT31;53428;47.686;16.584;2023-03-23T22:19:44;10.88;77.77
66576;SHT31;53428;47.686;16.584;2023-03-23T22:24:44;10.78;78.17
66576;SHT31;53428;47.686;16.584;2023-03-23T22:29:43;10.79;78.35
66576;SHT31;53428;47.686;16.584;2023-03-23T22:34:42;10.86;78.30
66576;SHT31;53428;47.686;16.584;2023-03-23T22:39:42;10.95;78.01
66576;SHT31;53428;47.686;16.584;2023-03-23T22:44:42;10.89;77.87
66576;SHT31;53428;47.686;16.584;2023-03-23T22:49:41;10.85;78.14
66576;SHT31;53428;47.686;16.584;2023-03-23T22:54:41;10.76;78.24
66576;SHT31;53428;47.686;16.584;2023-03-23T22:59:40;10.76;78.60
66576;SHT31;53428;47.686;16.584;2023-03-23T23:04:40;10.81;78.57
66576;SHT31;53428;47.686;16.584;2023-03-23T23:09:42;10.78;78.71
66576;SHT31;53428;47.686;16.584;2023-03-23T23:14:42;10.78;78.57
66576;SHT31;53428;47.686;16.584;2023-03-23T23:19:41;10.88;78.09
66576;SHT31;53428;47.686;16.584;2023-03-23T23:24:41;10.72;78.67
66576;SHT31;53428;47.686;16.584;2023-03-23T23:29:41;10.73;78.63
66576;SHT31;53428;47.686;16.584;2023-03-23T23:34:40;10.55;79.21
66576;SHT31;53428;47.686;16.584;2023-03-23T23:39:40;10.40;79.65
66576;SHT31;53428;47.686;16.584;2023-03-23T23:44:40;10.31;79.95
66576;SHT31;53428;47.686;16.584;2023-03-23T23:49:41;10.17;79.95
66576;SHT31;53428;47.686;16.584;2023-03-23T23:54:40;10.04;80.19
66576;SHT31;53428;47.686;16.584;2023-03-23T23:59:40;9.90;80.66
